Terminal Aerodrome Forecast
Issued by NWS

Home | Current Version | Previous Version | Text Only | Print | Product List | Glossary On
Versions: 1 2 3 4 5 6 7 8 9 10 11 12 13 14 15 16 17 18 19 20 21 22 23 24 25 26
000
FTUS43 KGLD 251724
TAFMCK
TAF
KMCK 251724Z 2518/2618 33022G33KT P6SM FEW250
     FM260000 VRB05KT P6SM BKN070
     FM260500 27010KT P6SM SCT250=

USA.gov is the U.S. government's official web portal to all federal, state and local government web resources and services.